Westland, Michigan
Current Conditions -  °F | °C
As of 8:30 AM on Tuesday 21 Oct 2014 (Local Time) from KDTW Reporting Station
Light Rain Light Rain  
Wind Chill: 41°   Ceiling: 1000
Heat Index: 46°   Visibility: 4mi
Dew Point: 45°   Wind: 12mph
Humidity: 93%   Direction: 320°NW
Pressure: 29.97"   Gusts: NA
Location:  42.32°N, 83.4°W
Report Text: KDTW 211230Z 32010KT 4SM -RA BR BKN010 OVC025 08/07 A2997 RMK AO2 DZE14RAB14 P0000 $
Loading
Personal Weather Stations






























Interactive Weather Map
Tropical Storm Tracking
New forecast layout! Learn more

10-Day Weather Forecast

Advertisements
Track Severe Weather on mobile